createdAt,value
2022-09-23T00:00:21.078Z,5.03
2022-09-23T00:02:52.122Z,4.95
2022-09-23T00:05:18.828Z,4.53
2022-09-23T00:07:45.409Z,4.40
2022-09-23T00:12:37.645Z,4.57
2022-09-23T00:15:04.408Z,4.70
2022-09-23T00:17:31.454Z,4.55
2022-09-23T00:19:58.093Z,4.72
2022-09-23T00:22:24.805Z,4.80
2022-09-23T00:27:17.141Z,4.85
2022-09-23T00:29:43.667Z,4.85
2022-09-23T00:32:10.465Z,5.07
2022-09-23T00:34:37.124Z,4.93
2022-09-23T00:37:03.752Z,4.93
2022-09-23T00:41:56.156Z,5.60
2022-09-23T00:47:26.283Z,5.32
2022-09-23T00:52:32.346Z,5.20
2022-09-23T00:55:00.092Z,4.90
2022-09-23T00:57:27.474Z,5.40
2022-09-23T01:02:23.918Z,5.60
2022-09-23T01:04:51.378Z,5.20
2022-09-23T01:07:18.737Z,5.18
2022-09-23T01:09:46.050Z,4.90
2022-09-23T01:12:12.621Z,5.10
2022-09-23T01:23:02.761Z,4.97
2022-09-23T01:28:38.311Z,4.43
2022-09-23T01:45:01.680Z,4.82
2022-09-23T01:47:33.438Z,5.05
2022-09-23T01:50:24.935Z,5.68
2022-09-23T01:52:53.282Z,4.85
2022-09-23T01:55:23.365Z,5.45
2022-09-23T01:57:55.170Z,5.00
2022-09-23T02:00:23.071Z,5.20
2022-09-23T02:02:52.394Z,5.35
2022-09-23T02:07:54.894Z,5.90
2022-09-23T02:12:57.366Z,5.63
2022-09-23T02:15:26.175Z,5.60
2022-09-23T02:17:59.220Z,5.55
2022-09-23T02:20:28.601Z,5.70
2022-09-23T02:25:34.055Z,5.43
2022-09-23T02:30:56.797Z,5.60
2022-09-23T02:33:37.347Z,4.75
2022-09-23T02:36:10.480Z,4.68
2022-09-23T02:38:50.610Z,4.57
2022-09-23T02:41:20.530Z,4.70
2022-09-23T02:44:02.226Z,4.53
2022-09-23T02:46:30.156Z,4.35
2022-09-23T02:49:00.734Z,4.53
2022-09-23T02:56:22.381Z,4.47
2022-09-23T03:03:44.565Z,4.20
2022-09-23T03:06:21.021Z,4.43
2022-09-23T03:08:51.150Z,4.18
2022-09-23T03:11:17.939Z,4.40
2022-09-23T03:13:47.667Z,3.97
2022-09-23T03:16:22.518Z,4.20
2022-09-23T03:18:52.034Z,4.50
2022-09-23T03:21:39.429Z,4.60
2022-09-23T03:24:07.564Z,4.85
2022-09-23T03:26:35.625Z,4.82
2022-09-23T03:29:03.617Z,4.82
2022-09-23T03:31:30.937Z,4.35
2022-09-23T03:33:59.879Z,4.45
2022-09-23T03:39:22.698Z,4.60
2022-09-23T03:41:51.189Z,4.30
2022-09-23T03:44:18.406Z,5.03
2022-09-23T03:46:49.868Z,5.38
2022-09-23T03:49:17.697Z,5.03
2022-09-23T03:51:44.899Z,4.70
2022-09-23T03:54:12.123Z,5.03
2022-09-23T03:56:38.715Z,4.75
2022-09-23T03:59:05.285Z,4.70
2022-09-23T04:01:31.923Z,5.20
2022-09-23T04:03:58.553Z,5.00
2022-09-23T04:06:25.126Z,5.28
2022-09-23T04:08:51.825Z,5.10
2022-09-23T04:11:18.449Z,4.93
2022-09-23T04:13:44.990Z,5.65
2022-09-23T04:16:11.696Z,4.72
2022-09-23T04:18:38.368Z,4.75
2022-09-23T04:21:05.006Z,4.85
2022-09-23T04:23:31.689Z,4.88
2022-09-23T04:25:58.320Z,4.22
2022-09-23T04:28:24.909Z,4.35
2022-09-23T04:38:10.309Z,5.00
2022-09-23T04:40:36.997Z,4.68
2022-09-23T04:43:03.810Z,4.38
2022-09-23T04:47:58.164Z,5.07
2022-09-23T04:50:26.157Z,4.63
2022-09-23T04:52:53.105Z,4.47
2022-09-23T04:55:19.995Z,4.88
2022-09-23T04:57:46.656Z,5.20
2022-09-23T05:00:15.265Z,5.95
2022-09-23T05:02:43.291Z,5.00
2022-09-23T05:05:11.533Z,4.57
2022-09-23T05:07:38.169Z,4.82
2022-09-23T05:10:05.074Z,5.07
2022-09-23T05:12:31.745Z,5.28
2022-09-23T05:14:58.385Z,5.20
2022-09-23T05:17:25.008Z,6.47
2022-09-23T05:19:51.626Z,7.68
2022-09-23T05:24:46.201Z,7.03
2022-09-23T05:27:16.188Z,7.60
2022-09-23T05:29:44.027Z,6.25
2022-09-23T05:32:10.688Z,5.45
2022-09-23T05:34:37.324Z,4.28
2022-09-23T05:41:56.153Z,4.28
2022-09-23T05:44:22.790Z,4.10
2022-09-23T05:49:14.829Z,4.18
2022-09-23T05:51:42.519Z,4.53
2022-09-23T05:56:34.944Z,5.38
2022-09-23T05:59:02.230Z,5.88
2022-09-23T06:01:34.283Z,5.78
2022-09-23T06:04:02.328Z,5.78
2022-09-23T06:06:30.100Z,5.40
2022-09-23T06:08:56.969Z,5.50
2022-09-23T06:11:23.579Z,5.78
2022-09-23T06:13:54.191Z,5.40
2022-09-23T06:18:46.218Z,5.65
2022-09-23T06:21:14.955Z,5.70
2022-09-23T06:23:42.381Z,5.18
2022-09-23T06:26:10.329Z,5.43
2022-09-23T06:28:39.191Z,5.45
2022-09-23T06:31:12.962Z,6.03
2022-09-23T06:33:40.066Z,6.53
2022-09-23T06:36:08.262Z,6.40
2022-09-23T06:38:35.214Z,6.85
2022-09-23T06:46:32.314Z,5.88
2022-09-23T06:49:00.032Z,5.80
2022-09-23T06:51:26.980Z,7.00
2022-09-23T06:53:54.454Z,6.50
2022-09-23T06:56:23.145Z,6.53
2022-09-23T07:06:13.106Z,6.70
2022-09-23T07:08:43.193Z,6.47
2022-09-23T07:11:13.553Z,7.22
2022-09-23T07:13:43.589Z,6.88
2022-09-23T07:16:13.433Z,6.78
2022-09-23T07:21:07.597Z,6.38
2022-09-23T07:23:35.451Z,5.82
2022-09-23T07:35:47.979Z,6.30
2022-09-23T07:38:14.904Z,6.60
2022-09-23T07:40:43.629Z,6.80
2022-09-23T07:43:11.597Z,6.28
2022-09-23T07:45:39.279Z,6.18
2022-09-23T07:52:59.049Z,5.80
2022-09-23T07:57:51.935Z,6.35
2022-09-23T08:00:18.721Z,6.38
2022-09-23T08:05:11.750Z,5.80
2022-09-23T08:07:38.448Z,5.80
2022-09-23T08:10:06.392Z,5.85
2022-09-23T08:12:33.030Z,5.88
2022-09-23T08:15:03.894Z,5.72
2022-09-23T08:17:30.606Z,6.30
2022-09-23T08:19:57.430Z,5.93
2022-09-23T08:22:24.036Z,5.78
2022-09-23T08:29:42.014Z,5.85
2022-09-23T08:32:08.826Z,5.90
2022-09-23T08:34:35.890Z,5.95
2022-09-23T08:37:02.524Z,6.03
2022-09-23T08:39:29.210Z,6.07
2022-09-23T08:42:07.252Z,5.93
2022-09-23T08:47:25.039Z,5.97
2022-09-23T08:49:57.869Z,6.38
2022-09-23T08:52:43.218Z,5.80
2022-09-23T08:55:13.840Z,6.10
2022-09-23T08:58:24.034Z,5.35
2022-09-23T09:03:23.936Z,4.75
2022-09-23T09:05:54.398Z,4.90
2022-09-23T09:10:58.574Z,4.97
2022-09-23T09:13:29.864Z,4.70
2022-09-23T09:18:41.407Z,4.97
2022-09-23T09:26:17.146Z,5.10
2022-09-23T09:28:47.622Z,5.53
2022-09-23T09:31:24.721Z,6.15
2022-09-23T09:34:03.193Z,6.43
2022-09-23T09:38:58.715Z,8.80
2022-09-23T09:44:37.303Z,7.90
2022-09-23T09:47:26.990Z,7.88
2022-09-23T09:57:42.631Z,7.80
2022-09-23T10:02:44.391Z,6.72
2022-09-23T10:12:47.175Z,5.05
2022-09-23T10:15:35.005Z,5.65
2022-09-23T10:18:02.424Z,6.32
2022-09-23T10:20:36.278Z,6.57
2022-09-23T10:23:06.963Z,7.43
2022-09-23T10:25:34.985Z,5.40
2022-09-23T10:33:31.040Z,4.50
2022-09-23T10:35:57.755Z,4.30
2022-09-23T10:38:25.551Z,4.13
2022-09-23T10:41:12.200Z,4.10
2022-09-23T10:44:10.393Z,3.92
2022-09-23T10:49:12.663Z,3.88
2022-09-23T10:57:21.344Z,3.65
2022-09-23T11:04:55.290Z,3.78
2022-09-23T11:07:28.899Z,3.83
2022-09-23T11:14:55.622Z,3.45
2022-09-23T11:17:40.746Z,3.67
2022-09-23T11:23:20.330Z,3.53
2022-09-23T11:28:20.303Z,3.35
2022-09-23T11:30:53.319Z,3.38
2022-09-23T11:33:26.437Z,2.92
2022-09-23T11:35:56.847Z,2.90
2022-09-23T11:41:28.055Z,3.13
2022-09-23T11:43:59.572Z,3.05
2022-09-23T11:46:40.533Z,3.22
2022-09-23T11:49:17.126Z,2.90
2022-09-23T11:52:02.757Z,3.40
2022-09-23T11:54:32.227Z,3.53
2022-09-23T11:57:01.427Z,3.53
2022-09-23T11:59:38.773Z,3.58
2022-09-23T12:10:01.657Z,4.05
2022-09-23T12:21:06.171Z,3.67
2022-09-23T12:23:38.675Z,3.35
2022-09-23T12:26:08.303Z,3.03
2022-09-23T12:28:37.669Z,3.58
2022-09-23T12:31:05.823Z,3.03
2022-09-23T12:33:33.221Z,3.85
2022-09-23T12:36:10.606Z,4.03
2022-09-23T12:38:41.505Z,4.32
2022-09-23T12:44:01.098Z,4.63
2022-09-23T12:49:00.689Z,4.95
2022-09-23T12:51:50.225Z,4.80
2022-09-23T12:54:24.139Z,4.88
2022-09-23T12:56:53.489Z,4.90
2022-09-23T12:59:27.814Z,5.13
2022-09-23T13:01:54.997Z,4.72
2022-09-23T13:04:48.114Z,5.13
2022-09-23T13:10:11.742Z,5.45
2022-09-23T13:22:49.511Z,4.20
2022-09-23T13:25:19.238Z,5.15
2022-09-23T13:27:47.658Z,5.20
2022-09-23T13:30:14.266Z,4.68
2022-09-23T13:32:44.847Z,5.00
2022-09-23T13:37:47.631Z,4.82
2022-09-23T13:40:27.965Z,4.43
2022-09-23T13:42:59.575Z,4.85
2022-09-23T13:45:26.952Z,4.43
2022-09-23T13:50:23.934Z,4.72
2022-09-23T13:52:55.193Z,4.88
2022-09-23T13:55:26.170Z,4.40
2022-09-23T13:58:11.654Z,4.85
2022-09-23T14:00:38.396Z,4.15
2022-09-23T14:03:23.655Z,4.88
2022-09-23T14:08:17.303Z,4.57
2022-09-23T14:10:47.941Z,4.85
2022-09-23T14:16:01.918Z,4.90
2022-09-23T14:31:15.878Z,5.32
2022-09-23T14:33:42.888Z,5.53
2022-09-23T14:39:23.753Z,5.07
2022-09-23T14:41:50.431Z,5.50
2022-09-23T14:44:26.423Z,6.35
2022-09-23T14:46:56.588Z,5.90
2022-09-23T14:49:23.522Z,5.45
2022-09-23T14:51:54.474Z,5.55
2022-09-23T14:56:56.016Z,5.32
2022-09-23T15:08:01.542Z,4.60
2022-09-23T15:10:30.438Z,5.60
2022-09-23T15:13:04.037Z,5.35
2022-09-23T15:15:33.956Z,5.68
2022-09-23T15:20:33.687Z,5.18
2022-09-23T15:23:00.370Z,5.50
2022-09-23T15:30:29.334Z,6.35
2022-09-23T15:32:56.214Z,5.47
2022-09-23T15:35:26.952Z,5.32
2022-09-23T15:37:54.842Z,5.25
2022-09-23T15:42:52.733Z,5.50
2022-09-23T15:45:26.500Z,5.55
2022-09-23T15:57:41.235Z,4.95
2022-09-23T16:00:09.841Z,5.10
2022-09-23T16:02:38.903Z,5.00
2022-09-23T16:05:07.869Z,4.32
2022-09-23T16:07:34.581Z,4.95
2022-09-23T16:10:01.217Z,5.00
2022-09-23T16:12:27.910Z,4.93
2022-09-23T16:14:54.551Z,4.90
2022-09-23T16:17:21.128Z,4.97
2022-09-23T16:22:15.243Z,5.10
2022-09-23T16:24:43.408Z,4.95
2022-09-23T16:32:03.180Z,5.03
2022-09-23T16:34:30.869Z,6.65
2022-09-23T16:36:58.834Z,6.50
2022-09-23T16:39:26.004Z,5.93
2022-09-23T16:41:55.177Z,5.50
2022-09-23T16:46:48.337Z,5.75
2022-09-23T16:49:18.235Z,6.32
2022-09-23T16:51:45.899Z,5.90
2022-09-23T16:54:26.951Z,5.97
2022-09-23T17:04:31.975Z,7.10
2022-09-23T17:07:25.609Z,7.95
2022-09-23T17:12:21.908Z,8.98
2022-09-23T17:14:48.609Z,8.20
2022-09-23T17:26:58.310Z,8.50
2022-09-23T17:29:26.856Z,8.68
2022-09-23T17:31:54.213Z,8.60
2022-09-23T17:34:20.992Z,8.88
2022-09-23T17:36:47.571Z,9.02
2022-09-23T17:39:14.113Z,9.38
2022-09-23T17:41:40.737Z,8.35
2022-09-23T17:44:11.045Z,8.50
2022-09-23T17:46:37.594Z,8.32
2022-09-23T17:51:31.609Z,8.25
2022-09-23T17:53:58.679Z,8.95
2022-09-23T18:08:36.473Z,11.98
2022-09-23T18:11:10.907Z,10.07
2022-09-23T18:13:37.578Z,10.98
2022-09-23T18:16:04.636Z,10.73
2022-09-23T18:21:00.225Z,11.00
2022-09-23T18:23:26.870Z,9.55
2022-09-23T18:30:57.125Z,11.93
2022-09-23T18:35:50.270Z,9.90
2022-09-23T18:38:17.091Z,10.35
2022-09-23T18:48:38.829Z,11.45
2022-09-23T18:55:57.923Z,12.20
2022-09-23T19:00:51.505Z,15.00
2022-09-23T19:03:19.032Z,14.02
2022-09-23T19:08:13.366Z,14.45
2022-09-23T19:10:40.008Z,13.25
2022-09-23T19:18:34.876Z,12.45
2022-09-23T19:21:06.821Z,12.93
2022-09-23T19:28:32.172Z,12.70
2022-09-23T19:30:59.123Z,12.63
2022-09-23T19:33:28.414Z,12.25
2022-09-23T19:35:55.441Z,11.77
2022-09-23T19:38:22.543Z,11.68
2022-09-23T19:40:52.358Z,12.43
2022-09-23T19:43:21.158Z,12.20
2022-09-23T19:48:22.726Z,12.25
2022-09-23T19:50:49.579Z,11.43
2022-09-23T19:58:09.573Z,11.07
2022-09-23T20:00:36.694Z,11.10
2022-09-23T20:03:03.835Z,10.48
2022-09-23T20:05:30.713Z,10.88
2022-09-23T20:07:59.145Z,11.15
2022-09-23T20:10:26.624Z,10.30
2022-09-23T20:12:54.325Z,10.43
2022-09-23T20:27:31.674Z,12.05
2022-09-23T20:30:00.057Z,11.98
2022-09-23T20:32:28.430Z,12.50
2022-09-23T20:34:56.592Z,13.10
2022-09-23T20:37:25.048Z,13.27
2022-09-23T20:39:52.368Z,13.93
2022-09-23T20:42:20.358Z,14.05
2022-09-23T20:49:42.962Z,13.40
2022-09-23T20:52:13.785Z,14.18
2022-09-23T20:54:41.825Z,13.65
2022-09-23T20:57:11.186Z,13.48
2022-09-23T20:59:39.009Z,13.95
2022-09-23T21:02:05.814Z,12.88
2022-09-23T21:04:32.955Z,13.43
2022-09-23T21:11:53.487Z,13.25
2022-09-23T21:14:22.470Z,13.88
2022-09-23T21:16:50.493Z,13.85
2022-09-23T21:19:17.491Z,13.57
2022-09-23T21:21:45.331Z,13.77
2022-09-23T21:24:40.000Z,13.00
2022-09-23T21:26:58.720Z,13.65
2022-09-23T21:29:25.307Z,13.48
2022-09-23T21:31:52.002Z,13.77
2022-09-23T21:34:19.454Z,14.10
2022-09-23T21:36:48.092Z,14.00
2022-09-23T21:39:14.823Z,14.73
2022-09-23T21:41:42.303Z,14.30
2022-09-23T21:44:09.095Z,14.23
2022-09-23T21:46:35.959Z,14.68
2022-09-23T21:49:03.759Z,15.13
2022-09-23T21:51:36.464Z,14.63
2022-09-23T21:54:03.095Z,14.20
2022-09-23T21:56:30.676Z,13.35
2022-09-23T22:01:35.235Z,13.93
2022-09-23T22:04:08.614Z,15.40
2022-09-23T22:06:37.588Z,16.00
2022-09-23T22:19:35.709Z,15.20
2022-09-23T22:24:31.223Z,15.30
2022-09-23T22:26:57.871Z,15.00
2022-09-23T22:29:43.224Z,14.40
2022-09-23T22:32:29.254Z,16.45
2022-09-23T22:34:56.106Z,15.43
2022-09-23T22:37:32.798Z,16.48
2022-09-23T22:42:25.059Z,15.15
2022-09-23T22:44:51.762Z,15.32
2022-09-23T22:54:37.015Z,15.95
2022-09-23T22:57:04.727Z,15.50
2022-09-23T22:59:31.297Z,15.95
2022-09-23T23:01:59.809Z,14.60
2022-09-23T23:04:27.062Z,15.13
2022-09-23T23:06:53.622Z,17.02
2022-09-23T23:09:20.230Z,15.80
2022-09-23T23:11:47.258Z,15.57
2022-09-23T23:14:15.028Z,16.55
2022-09-23T23:16:42.153Z,15.85
2022-09-23T23:19:10.043Z,15.75
2022-09-23T23:21:36.951Z,16.75
2022-09-23T23:24:04.564Z,15.63
2022-09-23T23:26:32.607Z,16.00
2022-09-23T23:28:59.738Z,16.13
2022-09-23T23:31:27.647Z,16.35
2022-09-23T23:33:54.453Z,16.63
2022-09-23T23:36:21.883Z,16.15
2022-09-23T23:38:49.548Z,17.38
2022-09-23T23:41:17.470Z,17.02
2022-09-23T23:43:45.945Z,16.58
2022-09-23T23:46:13.927Z,18.05
2022-09-23T23:48:41.843Z,17.80
2022-09-23T23:51:10.325Z,17.02
2022-09-23T23:58:31.130Z,18.63
